Time;durP1;ratioP1;P1;durP2;ratioP2;P2;SDS_P1;SDS_P2;PMS_P1;PMS_P2;Temp;Humidity;BMP_temperature;BMP_pressure;BME280_temperature;BME280_humidity;BME280_pressure;Samples;Min_cycle;Max_cycle;Signal;HPM_P1;HPM_P2
2021/12/27 00:01:54;;;;;;;148.83;59.03;;;;;;;-10.26;95.39;100593.92;3478023;83;99513;-85
2021/12/27 00:06:55;;;;;;;249.67;86.97;;;;;;;-10.24;95.38;100596.35;3478023;83;99967;-84
2021/12/27 00:11:56;;;;;;;219.47;76.92;;;;;;;-10.31;94.45;100583.19;3366045;86;99547;-85
2021/12/27 00:16:57;;;;;;;143.47;55.17;;;;;;;-10.41;94.15;100590.97;3446964;84;99434;-85
2021/12/27 00:21:58;;;;;;;143.60;58.73;;;;;;;-10.42;94.37;100589.36;3451967;84;99604;-85
2021/12/27 00:26:59;;;;;;;120.90;46.63;;;;;;;-10.37;94.26;100580.69;3404360;85;99699;-85
2021/12/27 00:31:59;;;;;;;126.23;48.57;;;;;;;-10.37;94.35;100578.03;3393803;85;99985;-85
2021/12/27 00:37:00;;;;;;;117.57;46.93;;;;;;;-10.37;94.39;100573.50;3450945;84;100061;-85
2021/12/27 00:42:02;;;;;;;114.67;43.93;;;;;;;-10.35;94.39;100575.92;3438579;84;99384;-86
2021/12/27 00:47:04;;;;;;;123.13;44.55;;;;;;;-10.35;94.37;100573.27;3439335;84;99415;-85
2021/12/27 00:52:05;;;;;;;119.20;46.15;;;;;;;-10.35;94.23;100575.39;3440178;84;99822;-85
2021/12/27 00:57:06;;;;;;;96.37;37.40;;;;;;;-10.34;93.97;100573.03;3433446;84;99682;-85
2021/12/27 01:02:07;;;;;;;104.30;39.43;;;;;;;-10.38;93.97;100574.55;3420345;84;99459;-85
2021/12/27 01:07:08;;;;;;;92.00;39.80;;;;;;;-10.39;93.96;100574.78;3395015;85;99699;-85
2021/12/27 01:12:27;;;;;;;109.13;41.83;;;;;;;-10.40;94.11;100567.85;3438283;84;99229;-86
2021/12/27 01:17:12;;;;;;;99.87;37.87;;;;;;;-10.42;93.73;100560.10;3449547;84;99748;-86
2021/12/27 01:22:16;;;;;;;113.67;44.10;;;;;;;-10.44;94.02;100558.72;3444877;84;99308;-85
2021/12/27 01:27:16;;;;;;;102.00;39.67;;;;;;;-10.47;93.86;100557.34;3449978;84;99699;-85
2021/12/27 01:32:17;;;;;;;101.43;38.87;;;;;;;-10.53;93.30;100552.19;3439257;84;100008;-85
2021/12/27 01:37:18;;;;;;;103.77;39.53;;;;;;;-10.53;93.52;100559.63;3460526;83;100284;-85
2021/12/27 01:42:19;;;;;;;106.32;39.10;;;;;;;-10.57;93.67;100553.16;3437121;84;99480;-85
2021/12/27 01:47:20;;;;;;;108.30;39.73;;;;;;;-10.57;93.57;100558.47;3453525;84;98475;-86
2021/12/27 01:52:21;;;;;;;98.90;40.60;;;;;;;-10.57;93.34;100563.00;3433810;84;99452;-86
2021/12/27 01:57:22;;;;;;;93.67;35.37;;;;;;;-10.60;93.50;100567.45;3453476;83;99500;-85
2021/12/27 02:02:23;;;;;;;97.13;37.40;;;;;;;-10.62;93.63;100562.90;3438198;85;99420;-85
2021/12/27 02:07:24;;;;;;;83.83;36.00;;;;;;;-10.65;93.43;100556.71;3448207;84;99413;-86
2021/12/27 02:12:25;;;;;;;89.70;37.23;;;;;;;-10.66;93.73;100553.77;3450628;83;98842;-85
2021/12/27 02:17:26;;;;;;;109.80;40.97;;;;;;;-10.66;93.33;100548.45;3442131;83;99195;-86
2021/12/27 02:22:29;;;;;;;86.30;36.93;;;;;;;-10.72;93.08;100535.60;3438521;83;99903;-86
2021/12/27 02:27:29;;;;;;;84.13;31.53;;;;;;;-10.74;93.50;100531.02;3402633;85;99402;-86
2021/12/27 02:32:30;;;;;;;100.30;39.50;;;;;;;-10.79;92.86;100526.93;3488508;82;99418;-86
2021/12/27 02:37:31;;;;;;;87.47;33.88;;;;;;;-10.85;92.61;100513.80;3505421;82;99666;-86
2021/12/27 02:42:32;;;;;;;98.07;36.23;;;;;;;-10.90;92.90;100503.07;3515378;82;99189;-85
2021/12/27 02:47:33;;;;;;;105.97;37.70;;;;;;;-10.95;92.62;100496.32;3511936;82;99486;-85
2021/12/27 02:52:34;;;;;;;97.97;37.53;;;;;;;-10.94;92.91;100496.60;3504493;82;99302;-84
2021/12/27 02:57:35;;;;;;;91.83;38.63;;;;;;;-10.96;92.73;100502.69;3522668;82;99745;-85
2021/12/27 03:02:37;;;;;;;99.77;34.00;;;;;;;-10.97;93.39;100490.45;3508935;82;100102;-85
2021/12/27 03:07:40;;;;;;;99.20;36.00;;;;;;;-10.97;93.08;100485.13;3508233;82;99516;-85
2021/12/27 03:12:43;;;;;;;112.37;43.77;;;;;;;-10.98;92.86;100494.13;3496644;82;99412;-84
2021/12/27 03:17:46;;;;;;;123.93;42.30;;;;;;;-11.02;92.77;100491.67;3485517;82;25986;-85
2021/12/27 03:22:47;;;;;;;148.80;46.80;;;;;;;-10.97;92.61;100487.79;3468871;83;99911;-86
2021/12/27 03:27:49;;;;;;;142.80;50.43;;;;;;;-10.95;92.72;100492.34;3476471;83;99557;-85
2021/12/27 03:32:51;;;;;;;147.23;49.40;;;;;;;-10.88;92.22;100495.15;3472038;84;100075;-85
2021/12/27 03:37:56;;;;;;;142.43;47.33;;;;;;;-10.82;92.12;100488.06;3463860;84;101093;-84
2021/12/27 03:42:57;;;;;;;153.80;53.33;;;;;;;-10.74;92.39;100485.05;3479044;83;99846;-85
2021/12/27 03:47:59;;;;;;;146.50;51.53;;;;;;;-10.74;91.88;100483.17;3468207;83;99238;-85
2021/12/27 03:53:00;;;;;;;136.10;48.77;;;;;;;-10.65;92.30;100477.77;3482668;83;99778;-85
2021/12/27 03:58:08;;;;;;;122.73;45.33;;;;;;;-10.62;91.75;100465.86;3454919;83;100011;-84
2021/12/27 04:03:07;;;;;;;114.50;42.07;;;;;;;-10.47;91.92;100458.95;3469033;84;98909;-85
2021/12/27 04:08:09;;;;;;;124.23;43.17;;;;;;;-10.44;91.55;100453.16;3472137;84;99815;-84
2021/12/27 04:13:13;;;;;;;114.57;40.00;;;;;;;-10.40;91.82;100468.93;3452436;84;99360;-82
2021/12/27 04:18:15;;;;;;;107.93;35.43;;;;;;;-10.33;91.60;100459.45;3471935;83;99216;-85
2021/12/27 04:23:16;;;;;;;100.87;35.87;;;;;;;-10.21;91.79;100466.83;3475479;83;99611;-85
2021/12/27 04:28:19;;;;;;;109.73;42.33;;;;;;;-10.13;91.77;100459.28;3480903;83;99679;-85
2021/12/27 04:33:20;;;;;;;110.17;39.27;;;;;;;-10.02;91.44;100469.52;3479540;83;99829;-85
2021/12/27 04:38:21;;;;;;;91.23;34.20;;;;;;;-9.97;91.17;100460.28;3471059;83;99856;-85
2021/12/27 04:43:23;;;;;;;91.70;31.23;;;;;;;-9.99;90.55;100455.70;3485453;83;99469;-85
2021/12/27 04:48:26;;;;;;;91.65;32.05;;;;;;;-10.02;90.49;100447.72;3479098;83;99115;-85
2021/12/27 04:53:27;;;;;;;86.87;33.03;;;;;;;-10.02;90.39;100433.59;3484879;83;101009;-85
2021/12/27 04:58:28;;;;;;;87.83;29.53;;;;;;;-9.98;90.47;100429.41;3480531;83;99580;-84
2021/12/27 05:03:29;;;;;;;70.63;25.20;;;;;;;-10.02;90.10;100427.75;3488870;83;99100;-85
2021/12/27 05:08:30;;;;;;;78.73;27.30;;;;;;;-10.01;89.86;100436.02;3484277;83;99627;-84
2021/12/27 05:13:32;;;;;;;84.10;30.80;;;;;;;-9.98;90.03;100438.17;3475021;83;99535;-85
2021/12/27 05:18:33;;;;;;;83.17;24.67;;;;;;;-10.04;89.57;100429.08;3485265;84;98926;-86
2021/12/27 05:23:34;;;;;;;76.03;24.27;;;;;;;-10.00;89.93;100418.17;3501595;82;98937;-85
2021/12/27 05:28:35;;;;;;;77.60;26.57;;;;;;;-10.11;89.61;100422.58;3489171;82;99406;-85
2021/12/27 05:33:37;;;;;;;74.93;28.03;;;;;;;-10.06;89.83;100428.50;3505297;83;99269;-86
2021/12/27 05:38:39;;;;;;;60.27;19.53;;;;;;;-9.95;90.18;100436.37;3497876;82;99231;-85
2021/12/27 05:43:40;;;;;;;67.87;26.63;;;;;;;-9.93;89.20;100425.48;3496921;82;99430;-85
2021/12/27 05:48:41;;;;;;;62.62;20.90;;;;;;;-10.00;89.67;100429.64;3493876;82;99058;-85
2021/12/27 05:53:42;;;;;;;83.80;26.17;;;;;;;-9.99;89.24;100429.91;3506297;83;35037;-85
2021/12/27 05:58:43;;;;;;;64.45;24.02;;;;;;;-10.02;89.36;100425.61;3504069;82;99456;-85
2021/12/27 06:03:44;;;;;;;72.27;27.00;;;;;;;-10.02;89.18;100421.61;3514913;83;99432;-85
2021/12/27 06:08:45;;;;;;;86.67;29.20;;;;;;;-9.97;89.06;100411.83;3500766;82;99644;-85
2021/12/27 06:13:47;;;;;;;77.50;27.07;;;;;;;-10.12;89.19;100392.22;3509934;82;99575;-85
2021/12/27 06:18:48;;;;;;;75.20;25.45;;;;;;;-10.05;89.43;100404.31;3509503;82;99454;-85
2021/12/27 06:23:50;;;;;;;69.30;26.80;;;;;;;-10.04;89.34;100406.45;3528904;82;35393;-85
2021/12/27 06:28:51;;;;;;;68.70;24.70;;;;;;;-10.03;89.23;100409.36;3440418;84;99697;-85
2021/12/27 06:33:51;;;;;;;66.00;26.53;;;;;;;-10.04;89.12;100416.56;3433564;85;98605;-85
2021/12/27 06:38:52;;;;;;;65.45;19.35;;;;;;;-10.07;89.35;100415.73;3511429;82;99454;-85
2021/12/27 06:43:54;;;;;;;66.13;23.87;;;;;;;-10.06;89.26;100410.69;3519673;82;99719;-86
2021/12/27 06:48:55;;;;;;;73.80;24.87;;;;;;;-10.09;89.07;100414.36;3521471;82;99424;-86
2021/12/27 06:53:56;;;;;;;72.60;26.20;;;;;;;-10.08;89.45;100398.12;3527183;82;32969;-85
2021/12/27 06:58:59;;;;;;;66.20;26.13;;;;;;;-10.03;89.32;100413.35;3515432;82;99339;-85
2021/12/27 07:04:00;;;;;;;85.70;30.37;;;;;;;-10.08;89.30;100413.30;3526291;82;99482;-86
2021/12/27 07:09:01;;;;;;;76.07;26.77;;;;;;;-10.13;89.05;100401.25;3515287;82;99826;-86
2021/12/27 07:14:03;;;;;;;67.87;26.37;;;;;;;-10.08;89.32;100411.44;3531961;82;99448;-86
2021/12/27 07:19:04;;;;;;;67.00;26.07;;;;;;;-10.03;89.47;100415.47;3517276;82;99349;-85
2021/12/27 07:24:05;;;;;;;71.43;26.00;;;;;;;-10.04;89.40;100417.10;3523238;82;32385;-85
2021/12/27 07:29:06;;;;;;;61.97;23.57;;;;;;;-10.01;89.66;100417.90;3509403;82;99241;-85
2021/12/27 07:34:07;;;;;;;65.37;23.23;;;;;;;-9.95;89.62;100419.58;3530909;82;99238;-86
2021/12/27 07:39:08;;;;;;;77.63;26.30;;;;;;;-9.90;89.67;100427.64;3516913;82;99387;-86
2021/12/27 07:44:10;;;;;;;61.77;24.07;;;;;;;-9.87;89.82;100427.95;3524330;82;99220;-86
2021/12/27 07:49:13;;;;;;;76.87;27.17;;;;;;;-9.77;89.85;100432.64;3517892;82;99306;-86
2021/12/27 07:54:14;;;;;;;71.97;25.10;;;;;;;-9.70;89.97;100424.73;3525376;82;25861;-85
2021/12/27 07:59:15;;;;;;;71.80;24.43;;;;;;;-9.65;89.81;100425.36;3519694;82;99441;-85
2021/12/27 08:04:16;;;;;;;63.63;24.00;;;;;;;-9.61;89.92;100415.80;3523720;82;99094;-85
2021/12/27 08:09:17;;;;;;;61.48;20.25;;;;;;;-9.53;90.11;100424.72;3516507;82;99610;-85
2021/12/27 08:14:17;;;;;;;68.70;26.20;;;;;;;-9.40;90.18;100423.83;3509413;82;99711;-86
2021/12/27 08:19:18;;;;;;;70.57;26.97;;;;;;;-9.30;90.37;100420.48;3522676;82;99298;-85
2021/12/27 08:24:19;;;;;;;103.87;42.27;;;;;;;-9.14;90.46;100412.43;3526183;82;33574;-83
2021/12/27 08:29:21;;;;;;;75.27;28.77;;;;;;;-8.89;90.77;100412.69;3508620;82;99746;-84
2021/12/27 08:34:22;;;;;;;76.33;26.67;;;;;;;-8.63;90.82;100412.41;3517403;82;99512;-85
2021/12/27 08:39:23;;;;;;;64.10;28.73;;;;;;;-8.37;90.60;100403.07;3515215;82;99065;-85
2021/12/27 08:44:24;;;;;;;63.60;24.88;;;;;;;-8.10;90.45;100400.30;3525150;82;99093;-85
2021/12/27 08:49:25;;;;;;;67.32;25.75;;;;;;;-8.20;89.66;100394.39;3516910;82;99393;-85
2021/12/27 08:54:26;;;;;;;65.50;27.27;;;;;;;-8.18;89.65;100382.89;3526087;82;26431;-85
2021/12/27 08:59:27;;;;;;;70.40;27.80;;;;;;;-8.19;89.82;100393.30;3518253;82;99512;-85
2021/12/27 09:04:28;;;;;;;71.43;24.47;;;;;;;-8.19;89.84;100389.30;3526946;82;99704;-85
2021/12/27 09:09:29;;;;;;;72.63;27.33;;;;;;;-8.15;89.96;100387.73;3525924;82;99159;-84
2021/12/27 09:14:29;;;;;;;50.80;19.33;;;;;;;-8.09;89.84;100384.03;3520017;82;99219;-87
2021/12/27 09:19:33;;;;;;;63.35;24.57;;;;;;;-8.01;89.82;100382.75;3498995;82;99114;-81
2021/12/27 09:24:34;;;;;;;69.00;27.50;;;;;;;-7.94;89.59;100361.45;3500343;83;25853;-82
2021/12/27 09:29:35;;;;;;;64.30;24.70;;;;;;;-7.82;89.43;100375.40;3495534;83;99203;-82
2021/12/27 09:34:37;;;;;;;68.43;27.60;;;;;;;-7.69;89.63;100368.25;3505221;83;99511;-82
2021/12/27 09:39:38;;;;;;;57.75;24.02;;;;;;;-7.49;89.25;100359.52;3489219;83;99305;-83
2021/12/27 09:44:39;;;;;;;51.73;21.77;;;;;;;-7.33;88.93;100355.84;3494881;83;99271;-83
2021/12/27 09:49:41;;;;;;;72.58;24.77;;;;;;;-7.23;88.53;100344.67;3490136;83;99496;-83
2021/12/27 09:54:47;;;;;;;66.70;25.50;;;;;;;-7.08;88.43;100342.05;3496101;83;99084;-83
2021/12/27 09:59:48;;;;;;;68.42;27.80;;;;;;;-6.96;87.98;100333.77;3396541;85;99184;-87
2021/12/27 10:04:49;;;;;;;63.03;26.50;;;;;;;-6.81;87.65;100340.48;3400917;85;98858;-83
2021/12/27 10:10:01;;;;;;;71.60;29.20;;;;;;;-6.68;86.75;100335.94;3400442;85;99049;-83
2021/12/27 10:15:07;;;;;;;69.40;24.30;;;;;;;-6.63;87.14;100316.69;3401516;85;100026;-82
2021/12/27 10:20:24;;;;;;;65.62;24.90;;;;;;;-6.58;86.66;100303.84;3398919;85;99440;-81
2021/12/27 10:25:30;;;;;;;59.63;26.80;;;;;;;-6.57;86.70;100302.76;3486458;83;99632;-84
2021/12/27 10:30:37;;;;;;;57.00;21.30;;;;;;;-6.52;86.71;100292.05;3490273;83;99290;-82
2021/12/27 10:35:52;;;;;;;56.63;24.80;;;;;;;-6.44;86.75;100285.63;3481375;83;98979;-81
2021/12/27 10:41:05;;;;;;;57.50;21.13;;;;;;;-6.38;86.57;100282.42;3470800;83;99168;-82
2021/12/27 10:46:10;;;;;;;68.47;25.83;;;;;;;-6.29;86.13;100272.22;3493372;83;99219;-82
2021/12/27 10:51:13;;;;;;;70.95;27.37;;;;;;;-6.22;85.48;100267.37;3474938;83;99735;-81
2021/12/27 10:56:17;;;;;;;62.10;27.57;;;;;;;-6.17;85.56;100266.59;3412715;85;98868;-80
2021/12/27 11:01:21;;;;;;;63.07;26.27;;;;;;;-6.14;85.66;100253.45;3485696;82;98827;-81
2021/12/27 11:06:27;;;;;;;67.43;27.03;;;;;;;-6.05;85.69;100238.41;3506679;83;27476;-81
2021/12/27 11:11:28;;;;;;;59.57;22.63;;;;;;;-5.98;85.64;100240.80;3492304;83;99196;-82
2021/12/27 11:16:28;;;;;;;65.30;26.50;;;;;;;-5.89;85.86;100231.92;3497692;83;99111;-81
2021/12/27 11:21:41;;;;;;;47.13;16.80;;;;;;;-5.80;85.88;100232.15;3455155;84;99166;-81
2021/12/27 11:26:43;;;;;;;62.70;25.07;;;;;;;-5.73;85.82;100234.77;3406403;85;99265;-82
2021/12/27 11:31:49;;;;;;;61.73;24.00;;;;;;;-5.62;86.17;100230.97;3404348;85;99227;-82
2021/12/27 11:36:58;;;;;;;65.93;27.73;;;;;;;-5.53;85.64;100233.87;3409485;85;99738;-81
2021/12/27 11:42:03;;;;;;;66.30;28.47;;;;;;;-5.47;86.09;100223.37;3398355;85;98732;-81
2021/12/27 11:47:07;;;;;;;59.27;25.23;;;;;;;-5.44;85.85;100218.28;3354230;87;99548;-82
2021/12/27 11:52:27;;;;;;;64.60;25.20;;;;;;;-5.39;86.26;100225.48;3449769;84;99423;-81
2021/12/27 11:57:41;;;;;;;61.17;27.67;;;;;;;-5.36;86.17;100225.73;3458470;84;98554;-81
2021/12/27 12:02:45;;;;;;;62.67;24.67;;;;;;;-5.36;86.15;100208.86;3455232;84;99301;-81
2021/12/27 12:07:50;;;;;;;64.37;27.67;;;;;;;-5.35;86.49;100207.22;3463380;84;98511;-81
2021/12/27 12:13:41;;;;;;;78.17;35.43;;;;;;;-5.32;86.55;100207.20;3458571;84;99000;-81
2021/12/27 12:18:56;;;;;;;55.53;24.10;;;;;;;-5.33;86.66;100199.71;3460185;82;99258;-81
2021/12/27 12:24:15;;;;;;;55.97;25.83;;;;;;;-5.30;86.51;100181.70;3529717;82;27367;-81
2021/12/27 12:29:16;;;;;;;65.97;26.70;;;;;;;-5.30;87.24;100178.23;3522365;82;99510;-81
2021/12/27 12:34:19;;;;;;;59.00;25.30;;;;;;;-5.29;87.50;100172.58;3519022;82;99660;-81
2021/12/27 12:39:23;;;;;;;63.47;26.77;;;;;;;-5.26;87.63;100173.38;3516609;82;99373;-81
2021/12/27 12:44:24;;;;;;;68.77;26.67;;;;;;;-5.22;87.73;100160.20;3517726;82;99272;-82
2021/12/27 12:49:28;;;;;;;64.07;25.62;;;;;;;-5.22;87.74;100162.87;3522016;82;99238;-82
2021/12/27 12:54:34;;;;;;;68.60;26.57;;;;;;;-5.23;87.88;100159.38;3515572;82;27494;-81
2021/12/27 12:59:43;;;;;;;57.58;25.75;;;;;;;-5.22;87.98;100161.54;3516588;82;99068;-81
2021/12/27 13:05:07;;;;;;;61.20;25.60;;;;;;;-5.25;87.95;100159.44;3534502;82;99719;-86
2021/12/27 13:10:18;;;;;;;63.40;25.72;;;;;;;-5.26;87.99;100156.47;3517458;82;99560;-87
2021/12/27 13:15:35;;;;;;;60.90;23.30;;;;;;;-5.24;88.17;100165.84;3531909;82;99228;-84
2021/12/27 13:20:39;;;;;;;59.53;24.33;;;;;;;-5.24;88.00;100168.52;3503364;82;98974;-85
2021/12/27 13:25:56;;;;;;;53.87;22.53;;;;;;;-5.24;87.92;100172.54;3496620;83;99231;-84
2021/12/27 13:31:19;;;;;;;63.00;26.70;;;;;;;-5.27;87.79;100158.36;3462862;83;99538;-85
2021/12/27 13:36:34;;;;;;;55.37;22.43;;;;;;;-5.28;87.82;100159.45;3489680;83;27535;-87
2021/12/27 13:41:47;;;;;;;54.77;22.63;;;;;;;-5.30;87.69;100156.23;3420261;84;99478;-86
2021/12/27 13:46:54;;;;;;;63.40;25.17;;;;;;;-5.30;87.83;100157.57;3420872;85;99510;-84
2021/12/27 13:52:02;;;;;;;54.90;23.93;;;;;;;-5.32;87.50;100153.56;3385008;85;99691;-85
2021/12/27 13:57:04;;;;;;;61.23;24.12;;;;;;;-5.34;87.82;100161.88;3369166;86;99761;-84
2021/12/27 14:02:07;;;;;;;54.50;22.43;;;;;;;-5.34;87.63;100158.42;3399594;85;99888;-84
2021/12/27 14:07:10;;;;;;;59.13;24.17;;;;;;;-5.36;87.85;100167.30;3406596;85;99796;-86
2021/12/27 14:12:16;;;;;;;46.30;19.93;;;;;;;-5.39;87.88;100159.27;3404815;85;98757;-84
2021/12/27 14:17:22;;;;;;;46.63;20.53;;;;;;;-5.41;87.63;100161.41;3409536;85;99630;-84
2021/12/27 14:22:23;;;;;;;56.93;21.33;;;;;;;-5.46;87.86;100152.61;3399525;85;99838;-83
2021/12/27 14:27:32;;;;;;;53.07;23.50;;;;;;;-5.51;87.80;100154.77;3529770;82;99073;-85
2021/12/27 14:32:35;;;;;;;53.20;22.57;;;;;;;-5.56;87.70;100154.80;3518084;82;99110;-85
2021/12/27 14:37:38;;;;;;;53.57;22.27;;;;;;;-5.60;87.87;100158.32;3527085;82;99918;-84
2021/12/27 14:42:39;;;;;;;63.37;25.13;;;;;;;-5.65;87.90;100151.65;3521414;82;98647;-85
2021/12/27 14:47:40;;;;;;;51.73;22.27;;;;;;;-5.70;87.88;100147.13;3525535;82;99047;-84
2021/12/27 14:52:42;;;;;;;58.47;23.57;;;;;;;-5.76;87.95;100152.79;3516715;82;99183;-84
2021/12/27 14:57:44;;;;;;;57.47;23.40;;;;;;;-5.81;88.13;100152.84;3465330;84;98446;-84
2021/12/27 15:02:45;;;;;;;60.37;24.13;;;;;;;-5.86;88.26;100142.97;3437027;84;99533;-84
2021/12/27 15:07:46;;;;;;;70.60;26.83;;;;;;;-5.89;88.21;100146.19;3464443;84;98418;-83
2021/12/27 15:12:47;;;;;;;64.17;27.50;;;;;;;-5.93;88.33;100153.20;3521900;82;99283;-83
2021/12/27 15:17:51;;;;;;;60.03;25.63;;;;;;;-5.98;88.47;100141.69;3531768;82;25869;-84
2021/12/27 15:22:53;;;;;;;65.90;28.60;;;;;;;-6.03;88.25;100141.19;3532038;82;99042;-85
2021/12/27 15:27:54;;;;;;;75.00;33.43;;;;;;;-6.10;88.12;100143.38;3520121;82;99164;-85
2021/12/27 15:32:55;;;;;;;71.77;30.90;;;;;;;-6.19;88.17;100134.30;3527113;83;99740;-84
2021/12/27 15:37:57;;;;;;;73.47;29.97;;;;;;;-6.24;88.33;100148.23;3524132;82;106892;-85
2021/12/27 15:43:01;;;;;;;78.33;32.13;;;;;;;-6.30;88.31;100146.13;3535900;82;99463;-85
2021/12/27 15:48:04;;;;;;;82.90;33.67;;;;;;;-6.35;88.27;100123.38;3506338;82;99184;-84
2021/12/27 15:53:05;;;;;;;82.47;31.70;;;;;;;-6.41;88.50;100121.80;3519307;82;99503;-84
2021/12/27 15:58:08;;;;;;;76.63;32.33;;;;;;;-6.48;88.46;100123.98;3514499;82;99182;-84
2021/12/27 16:03:09;;;;;;;79.00;31.87;;;;;;;-6.49;88.73;100128.26;3516283;82;99221;-86
2021/12/27 16:08:10;;;;;;;88.57;33.70;;;;;;;-6.51;88.75;100133.88;3509771;82;99108;-85
2021/12/27 16:13:12;;;;;;;83.77;33.83;;;;;;;-6.57;88.67;100134.97;3525706;82;99297;-85
2021/12/27 16:18:15;;;;;;;73.52;28.77;;;;;;;-6.59;88.88;100132.30;3513140;82;99096;-84
2021/12/27 16:23:17;;;;;;;80.77;31.73;;;;;;;-6.62;89.00;100134.17;3531516;82;99035;-86
2021/12/27 16:28:21;;;;;;;80.72;33.02;;;;;;;-6.65;89.17;100128.83;3515515;82;99238;-84
2021/12/27 16:33:22;;;;;;;63.13;23.97;;;;;;;-6.68;89.12;100123.22;3527565;82;98443;-86
2021/12/27 16:38:24;;;;;;;68.30;27.83;;;;;;;-6.73;89.28;100127.23;3526317;82;99257;-84
2021/12/27 16:43:28;;;;;;;75.63;31.37;;;;;;;-6.74;89.38;100118.95;3530840;82;98249;-82
2021/12/27 16:48:29;;;;;;;59.90;25.57;;;;;;;-6.78;89.44;100126.73;3523283;82;99047;-85
2021/12/27 16:53:31;;;;;;;76.80;30.53;;;;;;;-6.84;89.50;100119.79;3532016;82;99034;-83
2021/12/27 16:58:32;;;;;;;77.35;32.65;;;;;;;-6.86;89.73;100119.27;3522768;82;99453;-83
2021/12/27 17:03:33;;;;;;;84.43;34.13;;;;;;;-6.87;89.81;100118.19;3531254;82;99705;-84
2021/12/27 17:08:35;;;;;;;89.97;34.83;;;;;;;-6.93;89.73;100117.39;3517804;82;99602;-83
2021/12/27 17:13:37;;;;;;;90.90;40.53;;;;;;;-6.98;89.87;100108.03;3528847;82;98428;-84
2021/12/27 17:18:38;;;;;;;75.50;30.37;;;;;;;-7.03;89.93;100110.72;3519211;82;99358;-82
2021/12/27 17:23:38;;;;;;;91.02;33.45;;;;;;;-7.03;90.15;100126.76;3506141;83;98890;-85
2021/12/27 17:28:41;;;;;;;81.17;35.23;;;;;;;-7.02;90.33;100137.74;3493389;83;99324;-86
2021/12/27 17:33:44;;;;;;;90.93;35.13;;;;;;;-7.03;90.32;100140.69;3492078;83;99668;-87
2021/12/27 17:38:45;;;;;;;90.57;35.00;;;;;;;-7.06;90.27;100135.33;3502880;83;99626;-87
2021/12/27 17:43:46;;;;;;;80.30;36.13;;;;;;;-7.08;90.33;100128.13;3486130;83;99255;-87
2021/12/27 17:48:47;;;;;;;90.67;34.57;;;;;;;-7.12;90.36;100111.53;3482972;83;100045;-88
2021/12/27 17:53:50;;;;;;;90.73;37.70;;;;;;;-7.18;90.36;100121.45;3498778;83;26385;-88
2021/12/27 17:58:51;;;;;;;90.77;36.07;;;;;;;-7.21;90.31;100112.61;3476360;83;99069;-87
2021/12/27 18:03:52;;;;;;;64.93;25.40;;;;;;;-7.27;90.31;100115.55;3492817;83;99209;-86
2021/12/27 18:08:53;;;;;;;85.97;31.70;;;;;;;-7.33;90.31;100108.61;3392164;85;99314;-85
2021/12/27 18:13:57;;;;;;;94.27;38.07;;;;;;;-7.34;90.51;100109.68;3399812;85;99540;-87
2021/12/27 18:18:57;;;;;;;82.47;33.77;;;;;;;-7.34;90.86;100104.34;3483808;83;99279;-84
2021/12/27 18:23:58;;;;;;;85.37;32.10;;;;;;;-7.33;91.19;100101.92;3515720;82;26080;-85
2021/12/27 18:28:59;;;;;;;83.13;31.17;;;;;;;-7.31;91.31;100105.15;3518488;82;99323;-86
2021/12/27 18:34:01;;;;;;;94.27;34.70;;;;;;;-7.28;91.64;100098.73;3504738;82;99360;-85
2021/12/27 18:39:04;;;;;;;84.65;36.83;;;;;;;-7.26;91.98;100100.59;3517033;82;99591;-87
2021/12/27 18:44:05;;;;;;;90.43;35.97;;;;;;;-7.22;92.31;100115.03;3505912;82;99298;-87
2021/12/27 18:49:07;;;;;;;93.30;37.57;;;;;;;-7.18;92.42;100115.28;3524128;82;99341;-86
2021/12/27 18:54:10;;;;;;;93.47;39.33;;;;;;;-7.13;92.73;100113.42;3530611;82;27618;-85
2021/12/27 18:59:11;;;;;;;77.93;32.13;;;;;;;-7.08;92.80;100108.59;3517043;82;99133;-87
2021/12/27 19:04:12;;;;;;;87.53;35.27;;;;;;;-7.03;93.10;100094.67;3514357;82;99460;-87
2021/12/27 19:09:14;;;;;;;79.45;33.28;;;;;;;-6.97;93.20;100084.77;3516457;82;99630;-86
2021/12/27 19:14:17;;;;;;;78.57;32.20;;;;;;;-6.95;93.37;100071.92;3521248;82;99596;-87
2021/12/27 19:19:19;;;;;;;70.10;29.10;;;;;;;-6.92;93.67;100062.81;3511231;82;99286;-86
2021/12/27 19:24:20;;;;;;;76.50;30.80;;;;;;;-6.87;93.89;100066.82;3518471;82;27554;-86
2021/12/27 19:29:21;;;;;;;84.15;32.17;;;;;;;-6.82;94.18;100064.13;3516911;82;99656;-87
2021/12/27 19:34:27;;;;;;;78.67;33.97;;;;;;;-6.76;94.84;100064.37;3517930;82;99107;-87
2021/12/27 19:39:33;;;;;;;72.47;30.17;;;;;;;-6.70;94.90;100063.28;3516487;82;99631;-86
2021/12/27 19:44:34;;;;;;;75.30;28.92;;;;;;;-6.63;95.44;100075.85;3523563;82;99469;-89
2021/12/27 19:49:35;;;;;;;67.67;28.30;;;;;;;-6.56;95.75;100065.65;3514796;82;99357;-87
2021/12/27 19:54:36;;;;;;;72.50;29.33;;;;;;;-6.49;95.89;100063.47;3521779;82;26409;-87
2021/12/27 19:59:39;;;;;;;84.47;37.90;;;;;;;-6.43;96.17;100063.70;3507085;82;99258;-87
2021/12/27 20:04:40;;;;;;;82.97;32.93;;;;;;;-6.37;96.26;100066.65;3534192;82;99020;-88
2021/12/27 20:09:47;;;;;;;64.13;24.57;;;;;;;-6.31;96.49;100060.72;3516556;82;99262;-88
2021/12/27 20:14:49;;;;;;;74.47;30.73;;;;;;;-6.26;96.92;100068.20;3519988;82;99241;-87
2021/12/27 20:19:50;;;;;;;75.03;31.27;;;;;;;-6.20;96.98;100067.63;3514777;82;99206;-87
2021/12/27 20:24:53;;;;;;;64.50;25.83;;;;;;;-6.15;96.97;100068.41;3479042;82;99288;-87
2021/12/27 20:29:53;;;;;;;78.65;31.97;;;;;;;-6.07;97.29;100077.71;3476371;82;99215;-87
2021/12/27 20:34:58;;;;;;;76.37;32.13;;;;;;;-5.97;97.49;100065.60;3471217;84;98281;-87
2021/12/27 20:40:01;;;;;;;78.97;31.57;;;;;;;-5.97;97.49;100065.60;3469333;83;99193;-87
2021/12/27 20:45:13;;;;;;;69.23;29.00;;;;;;;-5.91;97.62;100071.19;3474307;84;99196;-87
2021/12/27 20:50:18;;;;;;;67.90;29.13;;;;;;;-5.85;98.00;100068.77;3470603;84;99353;-84
2021/12/27 20:55:20;;;;;;;63.98;25.70;;;;;;;-5.79;98.12;100064.94;3473765;84;99560;-87
2021/12/27 21:00:26;;;;;;;64.87;28.27;;;;;;;-5.74;97.99;100076.41;3444397;84;99170;-86
2021/12/27 21:05:32;;;;;;;51.77;21.57;;;;;;;-5.70;98.00;100064.05;3472328;84;99129;-86
2021/12/27 21:10:35;;;;;;;58.65;24.63;;;;;;;-5.64;98.24;100061.59;3471430;83;99267;-87
2021/12/27 21:15:37;;;;;;;67.03;26.33;;;;;;;-5.58;98.12;100059.66;3483714;83;99274;-86
2021/12/27 21:20:41;;;;;;;56.77;27.55;;;;;;;-5.54;98.63;100063.38;3469923;84;99290;-85
2021/12/27 21:25:42;;;;;;;63.17;26.37;;;;;;;-5.48;98.37;100063.60;3478434;83;99259;-87
2021/12/27 21:30:43;;;;;;;61.33;25.97;;;;;;;-5.43;98.53;100069.73;3478981;83;99251;-88
2021/12/27 21:35:45;;;;;;;55.93;25.70;;;;;;;-5.36;98.54;100068.08;3480861;83;99255;-84
2021/12/27 21:40:46;;;;;;;54.77;24.50;;;;;;;-5.31;98.57;100058.09;3464884;84;99520;-86
2021/12/27 21:45:51;;;;;;;56.63;25.10;;;;;;;-5.27;98.51;100070.39;3470248;83;99807;-86
2021/12/27 21:50:54;;;;;;;66.33;28.53;;;;;;;-5.23;98.68;100066.86;3473093;83;99460;-85
2021/12/27 21:55:55;;;;;;;58.77;24.90;;;;;;;-5.18;98.65;100070.83;3471808;83;99604;-88
2021/12/27 22:00:56;;;;;;;54.57;25.43;;;;;;;-5.12;98.77;100076.44;3469738;84;99284;-85
2021/12/27 22:06:01;;;;;;;57.43;25.30;;;;;;;-5.08;98.62;100064.03;3452521;84;26016;-86
2021/12/27 22:11:03;;;;;;;60.37;24.57;;;;;;;-5.05;98.76;100055.44;3474398;83;99505;-84
2021/12/27 22:16:04;;;;;;;52.07;22.00;;;;;;;-5.02;98.83;100057.53;3480320;83;99204;-85
2021/12/27 22:21:08;;;;;;;50.88;21.90;;;;;;;-5.01;98.74;100042.25;3347619;86;99274;-85
2021/12/27 22:26:08;;;;;;;53.37;22.67;;;;;;;-4.97;98.87;100017.80;3411313;84;99593;-85
2021/12/27 22:31:09;;;;;;;60.57;26.27;;;;;;;-4.95;98.93;100002.20;3413693;85;99282;-86
2021/12/27 22:36:14;;;;;;;59.67;26.83;;;;;;;-4.92;98.91;99997.62;3414822;85;26311;-85
2021/12/27 22:41:15;;;;;;;54.27;26.23;;;;;;;-4.90;99.02;99996.78;3410405;85;98967;-85
2021/12/27 22:46:17;;;;;;;63.73;27.80;;;;;;;-4.86;99.15;99999.16;3410855;85;99000;-85